Time;durP1;ratioP1;P1;durP2;ratioP2;P2;SDS_P1;SDS_P2;PMS_P1;PMS_P2;Temp;Humidity;BMP_temperature;BMP_pressure;BME280_temperature;BME280_humidity;BME280_pressure;Samples;Min_cycle;Max_cycle;Signal;HPM_P1;HPM_P2
2023/04/03 00:01:09;;;;;;;0.98;0.10;;;2.50;99.90;;;;;;5036291;28;20032;-82
2023/04/03 00:03:36;;;;;;;0.40;0.10;;;2.50;99.90;;;;;;5038041;28;20025;-82
2023/04/03 00:06:03;;;;;;;0.47;0.20;;;2.40;99.90;;;;;;5022927;28;20128;-82
2023/04/03 00:08:32;;;;;;;0.70;0.13;;;2.40;99.90;;;;;;5038497;28;20040;-81
2023/04/03 00:10:58;;;;;;;1.05;0.20;;;2.40;99.90;;;;;;5011434;28;20041;-82
2023/04/03 00:13:25;;;;;;;1.40;0.20;;;2.40;99.90;;;;;;5034394;28;20052;-81
2023/04/03 00:15:51;;;;;;;0.70;0.20;;;2.50;99.90;;;;;;5028730;28;20045;-81
2023/04/03 00:18:17;;;;;;;1.80;0.20;;;2.40;99.90;;;;;;5017870;28;20092;-82
2023/04/03 00:20:43;;;;;;;1.00;0.20;;;2.30;99.90;;;;;;5028521;28;20421;-82
2023/04/03 00:23:09;;;;;;;0.57;0.17;;;2.40;99.90;;;;;;5028029;28;20029;-82
2023/04/03 00:25:34;;;;;;;0.70;0.20;;;2.30;99.90;;;;;;5026576;28;20038;-82
2023/04/03 00:28:01;;;;;;;0.43;0.10;;;2.40;99.90;;;;;;5026762;28;20034;-81
2023/04/03 00:30:26;;;;;;;0.68;0.10;;;2.40;99.90;;;;;;5026129;28;20184;-81
2023/04/03 00:32:53;;;;;;;1.42;0.20;;;2.30;99.90;;;;;;5020453;28;20030;-81
2023/04/03 00:35:20;;;;;;;0.82;0.10;;;2.30;99.90;;;;;;5039355;28;20060;-82
2023/04/03 00:37:46;;;;;;;1.00;0.10;;;2.30;99.90;;;;;;5023925;28;20120;-82
2023/04/03 00:40:14;;;;;;;1.15;0.10;;;2.30;99.90;;;;;;5013804;28;20396;-81
2023/04/03 00:42:41;;;;;;;0.85;0.10;;;2.40;99.90;;;;;;5040796;28;20029;-82
2023/04/03 00:45:42;;;;;;;0.73;0.20;;;2.30;99.90;;;;;;5042112;28;20066;-82
2023/04/03 00:48:13;;;;;;;1.08;0.17;;;2.40;99.90;;;;;;5029228;28;20099;-81
2023/04/03 00:50:41;;;;;;;0.57;0.10;;;2.40;99.90;;;;;;5031414;28;20025;-82
2023/04/03 00:53:11;;;;;;;0.35;0.10;;;2.30;99.90;;;;;;5042756;28;20394;-81
2023/04/03 00:55:38;;;;;;;1.55;0.20;;;2.30;99.90;;;;;;5039656;28;20033;-81
2023/04/03 00:58:06;;;;;;;1.65;0.13;;;2.30;99.90;;;;;;5037637;28;20385;-82
2023/04/03 01:00:32;;;;;;;0.88;0.10;;;2.40;99.90;;;;;;5038585;28;20489;-82
2023/04/03 01:02:58;;;;;;;1.55;0.10;;;2.40;99.90;;;;;;5025354;28;20049;-82
2023/04/03 01:05:25;;;;;;;0.77;0.10;;;2.30;99.90;;;;;;5035412;28;20061;-82
2023/04/03 01:07:52;;;;;;;1.20;0.20;;;2.30;99.90;;;;;;5024692;28;20045;-82
2023/04/03 01:10:20;;;;;;;1.20;0.10;;;2.30;99.90;;;;;;5030911;28;20037;-82
2023/04/03 01:12:49;;;;;;;0.30;0.10;;;2.20;99.90;;;;;;5019406;28;20037;-81
2023/04/03 01:15:28;;;;;;;0.60;0.20;;;2.30;99.90;;;;;;5033538;28;20036;-82
2023/04/03 01:17:58;;;;;;;1.25;0.10;;;2.30;99.90;;;;;;5037183;28;20026;-81
2023/04/03 01:20:35;;;;;;;0.47;0.10;;;2.30;99.90;;;;;;5019708;28;20555;-82
2023/04/03 01:23:05;;;;;;;0.90;0.20;;;2.30;99.90;;;;;;5023162;28;20052;-81
2023/04/03 01:25:32;;;;;;;0.32;0.10;;;2.30;99.90;;;;;;5022889;28;20033;-81
2023/04/03 01:27:59;;;;;;;0.82;0.10;;;2.30;99.90;;;;;;5022232;28;20548;-82
2023/04/03 01:30:30;;;;;;;1.23;0.20;;;2.30;99.90;;;;;;5026041;28;20120;-82
2023/04/03 01:32:57;;;;;;;2.05;0.20;;;2.30;99.90;;;;;;5037125;28;20032;-81
2023/04/03 01:35:24;;;;;;;1.15;0.10;;;2.30;99.90;;;;;;5024658;28;20028;-82
2023/04/03 01:37:51;;;;;;;0.60;0.10;;;2.20;99.90;;;;;;5035199;28;20017;-82
2023/04/03 01:40:17;;;;;;;0.80;0.10;;;2.20;99.90;;;;;;5037490;28;20033;-81
2023/04/03 01:42:43;;;;;;;0.80;0.10;;;2.20;99.90;;;;;;5036969;28;20028;-81
2023/04/03 01:45:09;;;;;;;0.47;0.10;;;2.20;99.90;;;;;;5040951;28;20026;-82
2023/04/03 01:47:35;;;;;;;0.85;0.10;;;2.20;99.90;;;;;;5012135;28;20028;-82
2023/04/03 01:50:01;;;;;;;1.15;0.10;;;2.20;99.90;;;;;;5030482;28;20053;-81
2023/04/03 01:52:30;;;;;;;0.90;0.10;;;2.20;99.90;;;;;;5015479;28;20083;-82
2023/04/03 01:54:56;;;;;;;0.80;0.10;;;2.20;99.90;;;;;;5034608;28;20125;-82
2023/04/03 01:57:22;;;;;;;0.80;0.10;;;2.20;99.90;;;;;;5031409;28;20032;-82
2023/04/03 01:59:47;;;;;;;0.30;0.10;;;2.10;99.90;;;;;;5024630;28;20034;-81
2023/04/03 02:02:14;;;;;;;0.93;0.10;;;2.20;99.90;;;;;;5037613;28;20477;-82
2023/04/03 02:04:40;;;;;;;1.25;0.17;;;2.10;99.90;;;;;;5039336;28;20032;-81
2023/04/03 02:07:06;;;;;;;0.90;0.10;;;2.10;99.90;;;;;;5023837;28;20032;-82
2023/04/03 02:09:32;;;;;;;0.68;0.10;;;2.00;99.90;;;;;;5030705;28;20025;-81
2023/04/03 02:11:58;;;;;;;0.55;0.15;;;2.00;99.90;;;;;;5050886;28;20206;-81
2023/04/03 02:14:24;;;;;;;0.50;0.10;;;2.00;99.90;;;;;;5055696;28;20044;-82
2023/04/03 02:16:50;;;;;;;0.65;0.10;;;2.00;99.90;;;;;;5017740;28;20423;-82
2023/04/03 02:19:16;;;;;;;0.82;0.10;;;2.00;99.90;;;;;;5052646;28;20079;-81
2023/04/03 02:21:41;;;;;;;0.70;0.10;;;1.90;99.90;;;;;;5018563;28;20033;-82
2023/04/03 02:24:07;;;;;;;1.67;0.43;;;2.00;99.90;;;;;;5010695;28;20029;-82
2023/04/03 02:26:33;;;;;;;0.80;0.10;;;1.90;99.90;;;;;;5024812;28;20025;-81
2023/04/03 02:28:59;;;;;;;1.10;0.10;;;1.90;99.90;;;;;;5016834;28;20485;-82
2023/04/03 02:31:25;;;;;;;0.60;0.08;;;1.90;99.90;;;;;;5019566;28;20473;-82
2023/04/03 02:33:52;;;;;;;1.13;0.22;;;1.90;99.90;;;;;;5018691;28;20026;-82
2023/04/03 02:36:18;;;;;;;1.08;0.10;;;1.80;99.90;;;;;;5024661;28;20024;-82
2023/04/03 02:38:49;;;;;;;0.43;0.10;;;1.80;99.90;;;;;;5019081;28;20036;-82
2023/04/03 02:41:15;;;;;;;0.75;0.10;;;1.80;99.90;;;;;;5053329;28;20044;-81
2023/04/03 02:43:41;;;;;;;0.30;0.10;;;1.70;99.90;;;;;;5019980;28;20017;-82
2023/04/03 02:46:07;;;;;;;0.93;0.10;;;1.70;99.90;;;;;;5040802;28;20390;-82
2023/04/03 02:48:34;;;;;;;1.42;0.10;;;1.70;99.90;;;;;;5021123;28;20021;-82
2023/04/03 02:51:00;;;;;;;1.02;0.10;;;1.60;99.90;;;;;;5038325;28;20386;-82
2023/04/03 02:53:26;;;;;;;0.70;0.10;;;1.60;99.90;;;;;;5014397;28;20541;-82
2023/04/03 02:55:52;;;;;;;0.63;0.10;;;1.70;99.90;;;;;;5028127;28;20025;-81
2023/04/03 02:58:18;;;;;;;0.60;0.00;;;1.70;99.90;;;;;;5018575;28;20025;-82
2023/04/03 03:00:44;;;;;;;1.13;0.10;;;1.70;99.90;;;;;;5023117;28;20388;-82
2023/04/03 03:03:10;;;;;;;0.52;0.10;;;1.60;99.90;;;;;;5031685;28;20129;-81
2023/04/03 03:05:36;;;;;;;0.85;0.10;;;1.60;99.90;;;;;;5022582;28;20020;-82
2023/04/03 03:08:02;;;;;;;0.38;0.10;;;1.60;99.90;;;;;;5023767;28;20389;-81
2023/04/03 03:10:27;;;;;;;0.40;0.10;;;1.60;99.90;;;;;;5053713;28;20037;-80
2023/04/03 03:12:53;;;;;;;0.52;0.10;;;1.60;99.90;;;;;;5028783;28;20053;-81
2023/04/03 03:15:19;;;;;;;1.30;0.10;;;1.60;99.90;;;;;;5031033;28;20036;-82
2023/04/03 03:17:45;;;;;;;1.70;0.10;;;1.40;99.90;;;;;;5024142;28;20056;-82
2023/04/03 03:20:12;;;;;;;1.48;0.20;;;1.50;99.90;;;;;;5023707;28;20037;-82
2023/04/03 03:22:37;;;;;;;0.63;0.10;;;1.50;99.90;;;;;;5020139;28;20040;-81
2023/04/03 03:25:03;;;;;;;1.65;0.10;;;1.40;99.90;;;;;;5022494;28;20440;-81
2023/04/03 03:27:32;;;;;;;0.40;0.10;;;1.40;99.90;;;;;;5019960;28;20029;-82
2023/04/03 03:29:58;;;;;;;0.68;0.10;;;1.30;99.90;;;;;;5038843;28;20536;-81
2023/04/03 03:32:24;;;;;;;1.45;0.10;;;1.30;99.90;;;;;;5034508;28;20030;-81
2023/04/03 03:34:49;;;;;;;1.80;0.10;;;1.30;99.90;;;;;;5039096;28;20488;-81
2023/04/03 03:37:15;;;;;;;0.63;0.10;;;1.30;99.90;;;;;;5023336;28;20389;-81
2023/04/03 03:39:41;;;;;;;1.38;0.10;;;1.20;99.90;;;;;;5044567;28;20028;-81
2023/04/03 03:42:06;;;;;;;0.47;0.10;;;1.20;99.90;;;;;;5011243;28;20032;-81
2023/04/03 03:44:32;;;;;;;0.98;0.10;;;1.10;99.90;;;;;;5019456;28;20029;-80
2023/04/03 03:46:58;;;;;;;0.70;0.10;;;1.20;99.90;;;;;;5017929;28;20025;-81
2023/04/03 03:49:24;;;;;;;0.55;0.10;;;1.20;99.90;;;;;;5019389;28;20033;-81
2023/04/03 03:51:50;;;;;;;0.40;0.10;;;1.20;99.90;;;;;;5020734;28;20061;-81
2023/04/03 03:54:16;;;;;;;1.08;0.10;;;1.20;99.90;;;;;;5017529;28;20021;-81
2023/04/03 03:56:42;;;;;;;0.88;0.10;;;1.10;99.90;;;;;;5019296;28;20509;-81
2023/04/03 03:59:08;;;;;;;0.45;0.10;;;1.10;99.90;;;;;;5038784;28;20033;-81
2023/04/03 04:01:34;;;;;;;0.38;0.10;;;1.10;99.90;;;;;;5009780;28;20033;-81
2023/04/03 04:04:00;;;;;;;1.63;0.10;;;1.00;99.90;;;;;;5015749;28;20022;-79
2023/04/03 04:06:29;;;;;;;0.80;0.10;;;0.90;99.90;;;;;;5012782;28;20364;-81
2023/04/03 04:08:59;;;;;;;0.20;0.00;;;0.90;99.90;;;;;;5019273;28;20025;-80
2023/04/03 04:11:24;;;;;;;1.15;0.10;;;0.90;99.90;;;;;;5018641;28;20032;-80
2023/04/03 04:13:52;;;;;;;0.60;0.10;;;0.80;99.90;;;;;;5020894;28;20032;-80
2023/04/03 04:16:20;;;;;;;0.52;0.10;;;0.90;99.90;;;;;;5020258;28;20029;-81
2023/04/03 04:18:46;;;;;;;0.45;0.10;;;0.80;99.90;;;;;;5018687;28;20105;-82
2023/04/03 04:21:12;;;;;;;0.98;0.13;;;0.80;99.90;;;;;;5022650;28;20032;-81
2023/04/03 04:23:38;;;;;;;1.10;0.10;;;0.80;99.90;;;;;;5010299;28;20029;-81
2023/04/03 04:26:04;;;;;;;0.70;0.13;;;0.80;99.90;;;;;;5025085;28;20033;-82
2023/04/03 04:28:34;;;;;;;0.55;0.10;;;0.80;99.90;;;;;;5032893;28;20068;-81
2023/04/03 04:31:01;;;;;;;1.25;0.20;;;0.70;99.90;;;;;;5021316;28;20478;-81
2023/04/03 04:33:28;;;;;;;0.88;0.10;;;0.70;99.90;;;;;;5027357;28;20040;-81
2023/04/03 04:35:55;;;;;;;0.45;0.10;;;0.70;99.90;;;;;;5035576;28;20072;-81
2023/04/03 04:38:21;;;;;;;0.82;0.20;;;0.60;99.90;;;;;;5018327;28;20029;-81
2023/04/03 04:40:48;;;;;;;0.75;0.10;;;0.60;99.90;;;;;;5024526;28;20038;-81
2023/04/03 04:43:14;;;;;;;1.00;0.17;;;0.60;99.90;;;;;;5010300;28;20536;-82
2023/04/03 04:45:42;;;;;;;0.70;0.10;;;0.60;99.90;;;;;;5017219;28;20025;-82
2023/04/03 04:48:09;;;;;;;2.08;0.10;;;0.50;99.90;;;;;;5013611;28;20481;-79
2023/04/03 04:50:35;;;;;;;1.38;0.10;;;0.60;99.90;;;;;;5029300;28;20040;-80
2023/04/03 04:53:01;;;;;;;1.00;0.10;;;0.60;99.90;;;;;;5017300;28;20029;-81
2023/04/03 04:55:26;;;;;;;1.65;0.10;;;0.50;99.90;;;;;;5006890;28;20038;-82
2023/04/03 04:57:52;;;;;;;0.63;0.10;;;0.60;99.90;;;;;;5017623;28;20026;-82
2023/04/03 05:00:19;;;;;;;1.55;0.20;;;0.60;99.90;;;;;;5022910;28;20036;-80
2023/04/03 05:02:45;;;;;;;2.47;0.13;;;0.60;99.90;;;;;;5018325;28;20107;-81
2023/04/03 05:05:11;;;;;;;1.00;0.20;;;0.60;99.90;;;;;;5008708;28;20025;-81
2023/04/03 05:07:37;;;;;;;0.90;0.20;;;0.60;99.90;;;;;;5041494;28;20128;-81
2023/04/03 05:10:04;;;;;;;1.15;0.20;;;0.60;99.90;;;;;;5022657;28;20119;-81
2023/04/03 05:12:31;;;;;;;0.47;0.10;;;0.60;99.90;;;;;;5037103;28;20067;-81
2023/04/03 05:15:00;;;;;;;0.90;0.20;;;0.60;99.90;;;;;;5023337;28;20037;-81
2023/04/03 05:17:27;;;;;;;0.63;0.10;;;0.60;99.90;;;;;;5014732;28;20024;-81
2023/04/03 05:19:55;;;;;;;0.90;0.10;;;0.60;99.90;;;;;;5018195;28;20075;-81
2023/04/03 05:22:22;;;;;;;1.02;0.10;;;0.60;99.90;;;;;;5001489;28;20161;-81
2023/04/03 05:24:50;;;;;;;2.67;0.10;;;0.60;99.90;;;;;;5008186;28;20144;-81
2023/04/03 05:27:17;;;;;;;1.45;0.10;;;0.60;99.90;;;;;;5010562;28;20087;-81
2023/04/03 05:29:46;;;;;;;1.02;0.10;;;0.60;99.90;;;;;;5010676;28;20025;-81
2023/04/03 05:32:17;;;;;;;0.65;0.13;;;0.70;99.90;;;;;;5029127;28;20124;-82
2023/04/03 05:34:46;;;;;;;0.75;0.20;;;0.60;99.90;;;;;;5024383;28;20079;-80
2023/04/03 05:37:12;;;;;;;0.85;0.10;;;0.60;99.90;;;;;;5010694;28;20030;-81
2023/04/03 05:39:40;;;;;;;1.17;0.10;;;0.60;99.90;;;;;;5023953;28;20052;-81
2023/04/03 05:42:06;;;;;;;0.75;0.17;;;0.60;99.90;;;;;;5037299;28;20033;-80
2023/04/03 05:44:33;;;;;;;1.10;0.20;;;0.70;99.90;;;;;;5022420;28;20033;-80
2023/04/03 05:46:59;;;;;;;0.82;0.25;;;0.70;99.90;;;;;;5012394;28;20473;-81
2023/04/03 05:49:25;;;;;;;0.30;0.10;;;0.70;99.90;;;;;;5023835;28;20036;-81
2023/04/03 05:51:51;;;;;;;1.13;0.15;;;0.60;99.90;;;;;;5020032;28;20057;-81
2023/04/03 05:54:29;;;;;;;1.38;0.20;;;0.70;99.90;;;;;;5025504;28;20535;-81
2023/04/03 05:57:08;;;;;;;0.93;0.20;;;0.70;99.90;;;;;;5014269;28;20045;-81
2023/04/03 05:59:34;;;;;;;0.82;0.20;;;0.70;99.90;;;;;;5037343;28;20334;-81
2023/04/03 06:02:01;;;;;;;2.42;0.20;;;0.70;99.90;;;;;;5038327;28;20029;-81
2023/04/03 06:04:26;;;;;;;1.05;0.15;;;0.80;99.90;;;;;;5020289;28;20494;-81
2023/04/03 06:06:55;;;;;;;1.13;0.20;;;0.80;99.90;;;;;;5035923;28;20017;-81
2023/04/03 06:09:25;;;;;;;2.05;0.20;;;0.80;99.90;;;;;;5035528;28;20040;-81
2023/04/03 06:11:51;;;;;;;0.75;0.20;;;0.90;99.90;;;;;;5030161;28;20061;-82
2023/04/03 06:14:18;;;;;;;3.05;0.15;;;0.90;99.90;;;;;;5017102;28;20563;-82
2023/04/03 06:16:44;;;;;;;1.00;0.20;;;1.00;99.90;;;;;;5035005;28;20025;-83
2023/04/03 06:19:11;;;;;;;1.50;0.20;;;1.10;99.90;;;;;;5023342;28;20029;-82
2023/04/03 06:21:40;;;;;;;0.93;0.20;;;1.10;99.90;;;;;;5037449;28;20518;-82
2023/04/03 06:24:07;;;;;;;2.75;0.20;;;1.20;99.90;;;;;;5010013;28;20026;-84
2023/04/03 06:26:33;;;;;;;0.70;0.20;;;1.30;99.90;;;;;;5033439;28;20029;-84
2023/04/03 06:28:59;;;;;;;1.75;0.20;;;1.30;99.90;;;;;;5024442;28;20025;-84
2023/04/03 06:31:25;;;;;;;1.48;0.20;;;1.40;99.90;;;;;;5023370;28;20048;-85
2023/04/03 06:33:51;;;;;;;0.95;0.15;;;1.50;99.90;;;;;;5035525;28;20045;-84
2023/04/03 06:36:20;;;;;;;0.82;0.10;;;1.60;99.90;;;;;;5010355;28;20470;-84
2023/04/03 06:38:46;;;;;;;1.95;0.20;;;1.60;99.90;;;;;;5028103;28;20398;-85
2023/04/03 06:41:12;;;;;;;1.35;0.20;;;1.70;99.90;;;;;;5026602;28;20140;-85
2023/04/03 06:43:37;;;;;;;1.00;0.30;;;1.80;99.90;;;;;;5024302;28;20033;-85
2023/04/03 06:46:03;;;;;;;1.00;0.20;;;1.90;99.90;;;;;;5025305;28;20030;-84
2023/04/03 06:48:31;;;;;;;2.20;0.28;;;2.00;99.90;;;;;;5023908;28;20029;-85
2023/04/03 06:50:57;;;;;;;0.70;0.20;;;2.10;99.90;;;;;;5008381;28;20486;-83
2023/04/03 06:53:23;;;;;;;2.05;0.20;;;2.20;99.90;;;;;;5019788;28;20128;-86
2023/04/03 06:55:49;;;;;;;1.45;0.30;;;2.30;99.90;;;;;;5036202;28;20026;-86
2023/04/03 06:58:17;;;;;;;1.48;0.22;;;2.40;99.90;;;;;;5026206;28;20538;-84
2023/04/03 07:00:43;;;;;;;1.58;0.20;;;2.50;99.90;;;;;;5021140;28;20071;-85
2023/04/03 07:03:08;;;;;;;2.47;0.20;;;2.60;99.90;;;;;;5024578;28;20120;-87
2023/04/03 07:05:40;;;;;;;2.25;0.30;;;2.70;99.90;;;;;;5020276;28;20112;-86
2023/04/03 07:08:06;;;;;;;1.23;0.20;;;2.80;99.90;;;;;;5017566;28;20079;-83
2023/04/03 07:10:31;;;;;;;1.55;0.30;;;2.90;99.90;;;;;;5021869;28;20132;-85
2023/04/03 07:12:57;;;;;;;1.90;0.45;;;3.00;99.90;;;;;;5025318;28;20131;-86
2023/04/03 07:15:23;;;;;;;2.75;0.20;;;3.00;99.90;;;;;;5019991;28;20029;-84
2023/04/03 07:17:49;;;;;;;2.80;0.20;;;3.20;99.90;;;;;;5019922;28;20274;-83
2023/04/03 07:20:15;;;;;;;1.75;0.20;;;3.10;99.90;;;;;;5034864;28;20074;-85
2023/04/03 07:22:41;;;;;;;3.45;0.30;;;3.20;99.90;;;;;;5049796;28;20032;-82
2023/04/03 07:25:07;;;;;;;1.50;0.25;;;3.30;99.90;;;;;;5037014;28;20021;-84
2023/04/03 07:27:33;;;;;;;2.78;0.30;;;3.30;99.90;;;;;;5010186;28;20474;-85
2023/04/03 07:29:59;;;;;;;1.40;0.30;;;3.40;99.90;;;;;;5041260;28;20465;-85
2023/04/03 07:32:24;;;;;;;4.25;0.30;;;3.50;99.90;;;;;;5026328;28;20033;-85
2023/04/03 07:34:51;;;;;;;2.03;0.30;;;3.60;99.90;;;;;;5024900;28;20474;-84
2023/04/03 07:37:17;;;;;;;1.80;0.30;;;3.70;99.90;;;;;;5043002;28;20485;-84
2023/04/03 07:39:46;;;;;;;1.58;0.20;;;3.80;99.90;;;;;;5032068;28;20032;-85
2023/04/03 07:42:12;;;;;;;2.08;0.40;;;4.00;99.90;;;;;;5025665;28;20038;-84
2023/04/03 07:44:38;;;;;;;3.20;0.28;;;4.10;99.90;;;;;;5009128;28;20035;-87
2023/04/03 07:47:04;;;;;;;2.25;0.25;;;4.10;99.90;;;;;;5008472;28;20862;-85
2023/04/03 07:49:30;;;;;;;1.15;0.28;;;4.20;99.90;;;;;;5026587;28;20033;-84
2023/04/03 07:51:55;;;;;;;2.05;0.30;;;4.10;99.90;;;;;;5010191;28;20029;-84
2023/04/03 07:54:21;;;;;;;1.13;0.30;;;4.30;99.90;;;;;;5025248;28;20052;-84
2023/04/03 07:56:47;;;;;;;3.65;0.30;;;4.40;99.90;;;;;;5018942;28;20495;-84
2023/04/03 07:59:12;;;;;;;3.13;0.30;;;4.30;99.90;;;;;;5021857;28;20033;-84
2023/04/03 08:01:38;;;;;;;1.45;0.30;;;4.40;99.90;;;;;;5024897;28;20056;-84
2023/04/03 08:04:04;;;;;;;1.30;0.20;;;4.80;99.90;;;;;;5020904;28;20451;-85
2023/04/03 08:06:32;;;;;;;2.95;0.30;;;5.00;99.90;;;;;;5022914;28;20068;-85
2023/04/03 08:08:58;;;;;;;2.60;0.30;;;5.10;99.90;;;;;;5019208;28;20030;-86
2023/04/03 08:11:26;;;;;;;1.67;0.25;;;5.10;99.90;;;;;;5020413;28;20099;-85
2023/04/03 08:13:52;;;;;;;0.73;0.20;;;5.20;99.90;;;;;;5019235;28;20036;-84
2023/04/03 08:16:22;;;;;;;1.50;0.38;;;5.30;99.90;;;;;;5011643;28;20045;-87
2023/04/03 08:18:48;;;;;;;1.70;0.20;;;5.40;99.90;;;;;;5050103;28;20124;-85
2023/04/03 08:21:14;;;;;;;1.30;0.20;;;5.40;99.90;;;;;;5020860;28;20049;-86
2023/04/03 08:23:44;;;;;;;1.40;0.30;;;5.60;99.90;;;;;;5018324;28;20025;-85
2023/04/03 08:26:14;;;;;;;1.58;0.20;;;5.80;99.90;;;;;;5021073;28;20026;-85
2023/04/03 08:28:40;;;;;;;2.15;0.10;;;5.90;99.90;;;;;;5035287;28;20034;-84
2023/04/03 08:31:10;;;;;;;1.73;0.10;;;5.90;99.90;;;;;;5004240;28;20080;-84
2023/04/03 08:33:36;;;;;;;;;;;5.90;99.90;;;;;;5026991;28;20038;-84
2023/04/03 08:36:14;;;;;;;1.52;0.20;;;6.00;99.90;;;;;;5031654;28;20318;-85
2023/04/03 08:38:40;;;;;;;1.45;0.32;;;6.10;99.90;;;;;;5008262;28;20029;-85
2023/04/03 08:41:39;;;;;;;2.55;0.20;;;6.20;99.90;;;;;;5033795;28;20102;-83
2023/04/03 08:44:24;;;;;;;2.45;0.32;;;6.40;99.90;;;;;;5030865;28;21115;-86
2023/04/03 08:47:11;;;;;;;2.05;0.22;;;6.40;99.90;;;;;;5010831;28;20083;-86
2023/04/03 08:50:18;;;;;;;0.68;0.10;;;6.60;99.90;;;;;;5026599;28;20037;-86
2023/04/03 08:53:03;;;;;;;1.38;0.20;;;6.90;99.90;;;;;;4986683;28;20026;-85
2023/04/03 08:55:42;;;;;;;0.70;0.10;;;6.60;99.90;;;;;;4987211;28;20034;-85
2023/04/03 08:58:21;;;;;;;0.73;0.10;;;6.70;99.90;;;;;;5000461;28;20034;-86
2023/04/03 09:00:57;;;;;;;0.47;0.10;;;6.80;99.90;;;;;;4994081;28;20510;-85
2023/04/03 09:03:23;;;;;;;1.42;0.10;;;6.70;99.90;;;;;;5007977;28;20026;-86
2023/04/03 09:06:06;;;;;;;1.52;0.10;;;6.90;99.90;;;;;;4986637;28;20488;-86
2023/04/03 09:09:03;;;;;;;1.58;0.10;;;6.90;99.90;;;;;;5008353;28;20038;-86
2023/04/03 09:11:32;;;;;;;0.65;0.10;;;7.10;99.90;;;;;;4947236;28;20660;-87
2023/04/03 09:14:16;;;;;;;1.25;0.10;;;7.00;99.90;;;;;;4946967;28;20049;-85
2023/04/03 09:16:57;;;;;;;0.70;0.10;;;7.10;99.90;;;;;;4946462;28;20106;-84
2023/04/03 09:19:38;;;;;;;1.40;0.10;;;7.30;99.90;;;;;;4945024;28;20045;-84
2023/04/03 09:22:23;;;;;;;0.63;0.03;;;7.30;99.90;;;;;;4945396;28;20098;-85
2023/04/03 09:24:58;;;;;;;2.10;0.10;;;7.40;99.90;;;;;;4945963;28;20184;-84
2023/04/03 09:27:24;;;;;;;0.47;0.00;;;7.70;99.90;;;;;;4973607;28;20049;-86
2023/04/03 09:29:54;;;;;;;2.40;0.10;;;7.80;99.90;;;;;;5003257;28;20048;-85
2023/04/03 09:32:29;;;;;;;2.47;0.20;;;7.90;99.90;;;;;;4997590;28;20025;-84
2023/04/03 09:34:59;;;;;;;1.85;0.10;;;7.50;99.90;;;;;;4998682;28;20084;-85
2023/04/03 09:37:52;;;;;;;0.55;0.05;;;7.70;99.90;;;;;;5004946;28;20078;-84
2023/04/03 09:41:06;;;;;;;0.43;0.10;;;7.70;99.90;;;;;;4991771;28;20041;-84
2023/04/03 09:43:34;;;;;;;0.40;0.00;;;8.10;99.90;;;;;;4956632;28;20076;-84
2023/04/03 09:46:27;;;;;;;1.15;0.10;;;8.10;99.90;;;;;;4939569;28;20042;-84
2023/04/03 09:49:03;;;;;;;0.40;0.00;;;7.80;99.90;;;;;;4988664;28;20044;-83
2023/04/03 09:51:30;;;;;;;0.77;0.10;;;7.90;99.90;;;;;;4989970;28;20034;-85
2023/04/03 09:53:57;;;;;;;1.55;0.10;;;7.90;99.90;;;;;;5027998;28;20036;-84
2023/04/03 09:56:23;;;;;;;0.68;0.00;;;8.00;99.90;;;;;;5027936;28;20026;-85
2023/04/03 09:58:49;;;;;;;0.65;0.10;;;7.90;99.90;;;;;;4994964;28;20199;-83
2023/04/03 10:01:30;;;;;;;0.52;0.00;;;8.00;99.90;;;;;;4990971;28;20034;-83
2023/04/03 10:04:12;;;;;;;0.60;0.00;;;8.10;99.90;;;;;;4990679;28;20037;-84
2023/04/03 10:06:49;;;;;;;0.40;0.00;;;8.50;99.90;;;;;;4992151;28;20113;-86
2023/04/03 10:09:31;;;;;;;0.40;0.00;;;8.50;99.90;;;;;;4992592;28;20374;-83
2023/04/03 10:12:01;;;;;;;0.95;0.10;;;8.40;99.90;;;;;;4993022;28;20180;-83
2023/04/03 10:14:28;;;;;;;;;;;8.30;99.90;;;;;;5006655;28;20034;-84
2023/04/03 10:16:59;;;;;;;0.70;0.10;;;8.50;99.90;;;;;;5014693;28;20050;-84
2023/04/03 10:19:32;;;;;;;1.30;0.10;;;8.70;99.90;;;;;;5038472;28;20079;-86
2023/04/03 10:22:16;;;;;;;0.73;0.10;;;8.60;99.90;;;;;;5017768;28;20064;-84
2023/04/03 10:25:00;;;;;;;0.40;0.00;;;8.80;99.90;;;;;;5024349;28;20461;-85
2023/04/03 10:27:55;;;;;;;0.45;0.00;;;8.60;99.80;;;;;;5030234;28;20116;-85
2023/04/03 10:30:24;;;;;;;0.28;0.00;;;8.60;99.10;;;;;;5037430;28;20059;-86
2023/04/03 10:33:11;;;;;;;0.60;0.00;;;8.70;99.30;;;;;;5018936;28;20026;-84
2023/04/03 10:35:58;;;;;;;1.30;0.10;;;8.50;99.90;;;;;;5035927;28;20476;-82
2023/04/03 10:38:31;;;;;;;1.70;0.03;;;8.90;99.90;;;;;;5022920;28;20029;-84
2023/04/03 10:41:14;;;;;;;0.93;0.00;;;9.20;99.90;;;;;;5017369;28;20068;-86
2023/04/03 10:43:53;;;;;;;0.70;0.10;;;9.20;99.90;;;;;;5031866;28;20021;-84
2023/04/03 10:46:23;;;;;;;1.35;0.00;;;9.10;99.50;;;;;;5020582;28;20385;-83
2023/04/03 10:49:10;;;;;;;0.57;0.00;;;9.00;99.50;;;;;;5050383;28;20520;-84
2023/04/03 10:51:55;;;;;;;0.10;0.00;;;9.30;99.90;;;;;;5007624;28;20072;-84
2023/04/03 10:54:27;;;;;;;0.68;0.10;;;9.30;99.90;;;;;;5037474;28;20029;-85
2023/04/03 10:57:12;;;;;;;0.98;0.00;;;9.30;99.90;;;;;;5032757;28;20030;-84
2023/04/03 11:00:04;;;;;;;0.57;0.00;;;9.40;99.80;;;;;;5027894;28;20075;-83
2023/04/03 11:02:41;;;;;;;0.52;0.08;;;9.30;98.90;;;;;;5012824;28;20045;-84
2023/04/03 11:05:26;;;;;;;0.20;0.00;;;9.30;98.90;;;;;;5028163;28;20037;-84
2023/04/03 11:07:55;;;;;;;0.45;0.10;;;9.50;99.90;;;;;;5038812;28;20029;-83
2023/04/03 11:10:39;;;;;;;1.20;0.10;;;9.60;99.20;;;;;;5037848;28;20028;-83
2023/04/03 11:13:35;;;;;;;1.25;0.10;;;9.70;99.90;;;;;;5007121;28;20114;-85
2023/04/03 11:16:03;;;;;;;1.08;0.00;;;9.70;99.90;;;;;;5032083;28;20033;-84
2023/04/03 11:18:42;;;;;;;0.22;0.00;;;9.70;99.90;;;;;;5017527;28;20085;-85
2023/04/03 11:21:15;;;;;;;0.88;0.10;;;10.00;99.90;;;;;;5020508;28;20036;-83
2023/04/03 11:23:41;;;;;;;2.10;0.52;;;10.10;99.90;;;;;;5011389;28;20029;-83
2023/04/03 11:26:09;;;;;;;0.57;0.00;;;9.70;99.20;;;;;;5017855;28;20187;-85
2023/04/03 11:28:36;;;;;;;0.90;0.00;;;9.50;99.20;;;;;;5020323;28;20024;-84
2023/04/03 11:31:25;;;;;;;0.55;0.10;;;9.50;99.30;;;;;;5016587;28;20116;-83
2023/04/03 11:34:20;;;;;;;0.35;0.00;;;9.60;99.90;;;;;;5016844;28;20478;-83
2023/04/03 11:36:53;;;;;;;2.45;0.10;;;9.60;99.10;;;;;;5009196;28;20026;-83
2023/04/03 11:39:47;;;;;;;2.75;0.10;;;9.70;99.60;;;;;;5034153;28;20021;-85
2023/04/03 11:42:32;;;;;;;0.50;0.03;;;9.70;99.40;;;;;;5011722;28;20038;-84
2023/04/03 11:45:27;;;;;;;0.60;0.10;;;9.90;99.90;;;;;;5043644;28;20040;-90
2023/04/03 11:47:56;;;;;;;0.30;0.10;;;9.90;99.30;;;;;;5043483;28;20057;-83
2023/04/03 11:50:34;;;;;;;0.68;0.03;;;9.90;99.80;;;;;;5027532;28;20531;-86
2023/04/03 11:53:07;;;;;;;0.77;0.10;;;10.20;99.90;;;;;;5038893;28;20029;-87
2023/04/03 11:55:48;;;;;;;0.60;0.10;;;10.30;99.90;;;;;;5028081;28;20021;-85
2023/04/03 11:58:22;;;;;;;1.08;0.10;;;10.10;99.90;;;;;;5026753;28;20034;-85
2023/04/03 12:00:55;;;;;;;0.40;0.10;;;10.00;99.90;;;;;;5026111;28;20088;-87
2023/04/03 12:06:13;;;;;;;1.60;0.10;;;10.30;99.50;;;;;;5029790;28;20489;-86
2023/04/03 12:08:42;;;;;;;1.00;0.10;;;10.10;98.90;;;;;;5028534;28;20061;-85
2023/04/03 12:11:10;;;;;;;0.63;0.10;;;9.80;98.10;;;;;;5007244;28;20068;-84
2023/04/03 12:13:38;;;;;;;0.60;0.10;;;9.90;99.90;;;;;;5027462;28;20482;-85
2023/04/03 12:16:21;;;;;;;1.38;0.10;;;10.20;99.90;;;;;;5020514;28;20598;-84
2023/04/03 12:18:53;;;;;;;0.77;0.10;;;10.20;99.90;;;;;;5035050;28;20040;-87
2023/04/03 12:21:23;;;;;;;1.23;0.00;;;10.50;99.90;;;;;;5023586;28;20560;-85
2023/04/03 12:24:09;;;;;;;0.63;0.05;;;10.40;99.90;;;;;;5033280;28;20044;-86
2023/04/03 12:26:56;;;;;;;0.50;0.10;;;10.60;99.90;;;;;;5004473;28;20029;-85
2023/04/03 12:29:34;;;;;;;0.57;0.00;;;10.50;99.90;;;;;;5026491;28;20037;-85
2023/04/03 12:32:08;;;;;;;0.85;0.10;;;10.60;99.90;;;;;;5032521;28;20018;-84
2023/04/03 12:35:08;;;;;;;1.27;0.15;;;10.40;99.10;;;;;;5027698;28;20566;-83
2023/04/03 12:38:01;;;;;;;0.65;0.10;;;10.30;99.90;;;;;;5033978;28;20108;-84
2023/04/03 12:40:42;;;;;;;0.28;0.00;;;10.50;99.90;;;;;;5038279;28;20029;-84
2023/04/03 12:43:09;;;;;;;1.05;0.10;;;10.80;99.90;;;;;;5029423;28;20512;-87
2023/04/03 12:46:11;;;;;;;1.42;0.10;;;10.70;99.90;;;;;;5030464;28;20029;-84
2023/04/03 12:48:57;;;;;;;1.13;0.20;;;10.50;99.90;;;;;;5034306;28;20037;-84
2023/04/03 12:51:40;;;;;;;0.80;0.10;;;10.50;99.90;;;;;;5020207;28;20498;-84
2023/04/03 12:54:39;;;;;;;0.20;0.00;;;10.60;99.40;;;;;;5037626;28;20040;-85
2023/04/03 12:57:20;;;;;;;0.88;0.10;;;10.50;99.90;;;;;;5014650;28;20028;-86
2023/04/03 12:59:47;;;;;;;0.70;0.10;;;10.50;99.70;;;;;;5013346;28;20088;-87
2023/04/03 13:02:30;;;;;;;1.58;0.10;;;10.20;98.80;;;;;;5014201;28;20041;-85
2023/04/03 13:05:06;;;;;;;0.50;0.10;;;10.20;99.90;;;;;;5040194;28;20071;-86
2023/04/03 13:07:37;;;;;;;0.50;0.20;;;10.40;99.80;;;;;;5023816;28;20022;-85
2023/04/03 13:10:08;;;;;;;1.05;0.10;;;10.50;99.90;;;;;;5014766;28;20029;-85
2023/04/03 13:13:06;;;;;;;0.82;0.10;;;10.50;99.90;;;;;;5017651;28;20044;-87
2023/04/03 13:15:45;;;;;;;0.52;0.08;;;10.40;99.70;;;;;;5036306;28;20029;-85
2023/04/03 13:18:29;;;;;;;0.50;0.10;;;10.50;99.90;;;;;;5027390;28;20045;-87